sensor_id;sensor_type;location;lat;lon;timestamp;P1;durP1;ratioP1;P2;durP2;ratioP2
30515;SDS011;17297;54.022;10.760;2023-08-31T00:02:00;4.30;;;3.90;;
30515;SDS011;17297;54.022;10.760;2023-08-31T00:04:26;4.45;;;4.05;;
30515;SDS011;17297;54.022;10.760;2023-08-31T00:06:51;5.20;;;4.18;;
30515;SDS011;17297;54.022;10.760;2023-08-31T00:09:16;4.38;;;3.97;;
30515;SDS011;17297;54.022;10.760;2023-08-31T00:11:42;4.80;;;3.47;;
30515;SDS011;17297;54.022;10.760;2023-08-31T00:14:07;4.97;;;3.90;;
30515;SDS011;17297;54.022;10.760;2023-08-31T00:16:32;4.97;;;4.47;;
30515;SDS011;17297;54.022;10.760;2023-08-31T00:18:58;3.85;;;3.33;;
30515;SDS011;17297;54.022;10.760;2023-08-31T00:21:24;5.43;;;4.22;;
30515;SDS011;17297;54.022;10.760;2023-08-31T00:23:50;4.72;;;4.25;;
30515;SDS011;17297;54.022;10.760;2023-08-31T00:26:15;6.63;;;4.30;;
30515;SDS011;17297;54.022;10.760;2023-08-31T00:28:43;5.50;;;4.45;;
30515;SDS011;17297;54.022;10.760;2023-08-31T00:31:09;4.80;;;4.32;;
30515;SDS011;17297;54.022;10.760;2023-08-31T00:33:35;5.10;;;4.60;;
30515;SDS011;17297;54.022;10.760;2023-08-31T00:36:00;5.50;;;4.95;;
30515;SDS011;17297;54.022;10.760;2023-08-31T00:38:31;6.30;;;5.35;;
30515;SDS011;17297;54.022;10.760;2023-08-31T00:40:57;6.03;;;4.35;;
30515;SDS011;17297;54.022;10.760;2023-08-31T00:43:22;5.93;;;5.32;;
30515;SDS011;17297;54.022;10.760;2023-08-31T00:45:51;5.97;;;4.85;;
30515;SDS011;17297;54.022;10.760;2023-08-31T00:48:23;5.60;;;4.32;;
30515;SDS011;17297;54.022;10.760;2023-08-31T00:50:49;5.70;;;4.70;;
30515;SDS011;17297;54.022;10.760;2023-08-31T00:53:15;6.40;;;5.55;;
30515;SDS011;17297;54.022;10.760;2023-08-31T00:55:42;7.20;;;6.05;;
30515;SDS011;17297;54.022;10.760;2023-08-31T00:58:10;5.95;;;5.35;;
30515;SDS011;17297;54.022;10.760;2023-08-31T01:03:22;6.25;;;5.40;;
30515;SDS011;17297;54.022;10.760;2023-08-31T01:05:52;5.90;;;5.28;;
30515;SDS011;17297;54.022;10.760;2023-08-31T01:08:36;7.05;;;5.95;;
30515;SDS011;17297;54.022;10.760;2023-08-31T01:11:21;7.82;;;5.47;;
30515;SDS011;17297;54.022;10.760;2023-08-31T01:14:04;6.50;;;5.78;;
30515;SDS011;17297;54.022;10.760;2023-08-31T01:16:36;6.72;;;6.00;;
30515;SDS011;17297;54.022;10.760;2023-08-31T01:19:05;9.88;;;7.57;;
30515;SDS011;17297;54.022;10.760;2023-08-31T01:21:42;7.03;;;5.50;;
30515;SDS011;17297;54.022;10.760;2023-08-31T01:24:10;6.13;;;5.53;;
30515;SDS011;17297;54.022;10.760;2023-08-31T01:26:36;6.43;;;5.60;;
30515;SDS011;17297;54.022;10.760;2023-08-31T01:29:02;6.28;;;5.38;;
30515;SDS011;17297;54.022;10.760;2023-08-31T01:31:27;7.10;;;6.32;;
30515;SDS011;17297;54.022;10.760;2023-08-31T01:33:54;6.53;;;5.70;;
30515;SDS011;17297;54.022;10.760;2023-08-31T01:36:28;6.93;;;5.97;;
30515;SDS011;17297;54.022;10.760;2023-08-31T01:39:07;7.65;;;6.60;;
30515;SDS011;17297;54.022;10.760;2023-08-31T01:41:38;7.20;;;6.10;;
30515;SDS011;17297;54.022;10.760;2023-08-31T01:44:08;6.18;;;5.35;;
30515;SDS011;17297;54.022;10.760;2023-08-31T01:46:39;6.95;;;5.88;;
30515;SDS011;17297;54.022;10.760;2023-08-31T01:49:05;7.68;;;6.00;;
30515;SDS011;17297;54.022;10.760;2023-08-31T01:51:31;6.68;;;5.78;;
30515;SDS011;17297;54.022;10.760;2023-08-31T01:53:56;7.47;;;6.03;;
30515;SDS011;17297;54.022;10.760;2023-08-31T01:56:23;5.78;;;5.25;;
30515;SDS011;17297;54.022;10.760;2023-08-31T01:58:48;6.80;;;5.97;;
30515;SDS011;17297;54.022;10.760;2023-08-31T02:01:14;7.28;;;5.95;;
30515;SDS011;17297;54.022;10.760;2023-08-31T02:03:39;5.60;;;5.00;;
30515;SDS011;17297;54.022;10.760;2023-08-31T02:06:05;5.78;;;5.18;;
30515;SDS011;17297;54.022;10.760;2023-08-31T02:08:31;7.60;;;6.18;;
30515;SDS011;17297;54.022;10.760;2023-08-31T02:10:57;6.13;;;5.38;;
30515;SDS011;17297;54.022;10.760;2023-08-31T02:13:22;6.05;;;5.13;;
30515;SDS011;17297;54.022;10.760;2023-08-31T02:15:51;6.20;;;5.35;;
30515;SDS011;17297;54.022;10.760;2023-08-31T02:18:16;5.70;;;5.10;;
30515;SDS011;17297;54.022;10.760;2023-08-31T02:20:42;5.90;;;5.05;;
30515;SDS011;17297;54.022;10.760;2023-08-31T02:23:07;5.72;;;4.85;;
30515;SDS011;17297;54.022;10.760;2023-08-31T02:25:37;5.78;;;5.18;;
30515;SDS011;17297;54.022;10.760;2023-08-31T02:28:02;5.90;;;5.28;;
30515;SDS011;17297;54.022;10.760;2023-08-31T02:30:28;5.95;;;5.18;;
30515;SDS011;17297;54.022;10.760;2023-08-31T02:32:53;6.82;;;6.13;;
30515;SDS011;17297;54.022;10.760;2023-08-31T02:35:19;7.10;;;5.75;;
30515;SDS011;17297;54.022;10.760;2023-08-31T02:37:45;7.70;;;5.10;;
30515;SDS011;17297;54.022;10.760;2023-08-31T02:40:11;6.38;;;5.68;;
30515;SDS011;17297;54.022;10.760;2023-08-31T02:42:37;7.28;;;5.05;;
30515;SDS011;17297;54.022;10.760;2023-08-31T02:45:02;6.05;;;5.10;;
30515;SDS011;17297;54.022;10.760;2023-08-31T02:47:28;6.93;;;6.15;;
30515;SDS011;17297;54.022;10.760;2023-08-31T02:49:53;5.47;;;4.82;;
30515;SDS011;17297;54.022;10.760;2023-08-31T02:52:19;5.68;;;5.10;;
30515;SDS011;17297;54.022;10.760;2023-08-31T02:54:44;7.50;;;5.80;;
30515;SDS011;17297;54.022;10.760;2023-08-31T02:57:09;5.32;;;4.60;;
30515;SDS011;17297;54.022;10.760;2023-08-31T02:59:35;6.13;;;5.05;;
30515;SDS011;17297;54.022;10.760;2023-08-31T03:02:01;7.05;;;5.53;;
30515;SDS011;17297;54.022;10.760;2023-08-31T03:04:28;6.82;;;6.13;;
30515;SDS011;17297;54.022;10.760;2023-08-31T03:06:54;5.13;;;4.63;;
30515;SDS011;17297;54.022;10.760;2023-08-31T03:09:19;5.90;;;4.47;;
30515;SDS011;17297;54.022;10.760;2023-08-31T03:11:47;5.80;;;5.20;;
30515;SDS011;17297;54.022;10.760;2023-08-31T03:14:13;5.03;;;4.47;;
30515;SDS011;17297;54.022;10.760;2023-08-31T03:16:40;5.88;;;5.28;;
30515;SDS011;17297;54.022;10.760;2023-08-31T03:19:05;5.97;;;4.90;;
30515;SDS011;17297;54.022;10.760;2023-08-31T03:21:31;5.88;;;5.28;;
30515;SDS011;17297;54.022;10.760;2023-08-31T03:23:56;7.00;;;5.80;;
30515;SDS011;17297;54.022;10.760;2023-08-31T03:26:21;6.53;;;4.63;;
30515;SDS011;17297;54.022;10.760;2023-08-31T03:28:47;7.03;;;4.70;;
30515;SDS011;17297;54.022;10.760;2023-08-31T03:31:13;5.35;;;4.75;;
30515;SDS011;17297;54.022;10.760;2023-08-31T03:33:40;6.13;;;4.65;;
30515;SDS011;17297;54.022;10.760;2023-08-31T03:36:05;6.00;;;5.30;;
30515;SDS011;17297;54.022;10.760;2023-08-31T03:38:32;5.50;;;4.95;;
30515;SDS011;17297;54.022;10.760;2023-08-31T03:40:59;5.65;;;4.65;;
30515;SDS011;17297;54.022;10.760;2023-08-31T03:43:25;6.55;;;4.97;;
30515;SDS011;17297;54.022;10.760;2023-08-31T03:45:54;4.75;;;4.15;;
30515;SDS011;17297;54.022;10.760;2023-08-31T03:48:23;5.15;;;4.55;;
30515;SDS011;17297;54.022;10.760;2023-08-31T03:50:52;5.15;;;4.40;;
30515;SDS011;17297;54.022;10.760;2023-08-31T03:53:18;4.78;;;3.80;;
30515;SDS011;17297;54.022;10.760;2023-08-31T03:55:44;4.07;;;3.67;;
30515;SDS011;17297;54.022;10.760;2023-08-31T03:58:09;4.88;;;4.40;;
30515;SDS011;17297;54.022;10.760;2023-08-31T04:00:36;6.05;;;3.45;;
30515;SDS011;17297;54.022;10.760;2023-08-31T04:03:03;4.70;;;3.55;;
30515;SDS011;17297;54.022;10.760;2023-08-31T04:05:32;5.80;;;4.35;;
30515;SDS011;17297;54.022;10.760;2023-08-31T04:08:02;4.53;;;3.95;;
30515;SDS011;17297;54.022;10.760;2023-08-31T04:10:27;4.20;;;3.30;;
30515;SDS011;17297;54.022;10.760;2023-08-31T04:12:54;4.80;;;4.22;;
30515;SDS011;17297;54.022;10.760;2023-08-31T04:15:20;5.82;;;4.53;;
30515;SDS011;17297;54.022;10.760;2023-08-31T04:17:46;4.57;;;3.97;;
30515;SDS011;17297;54.022;10.760;2023-08-31T04:20:11;5.68;;;3.92;;
30515;SDS011;17297;54.022;10.760;2023-08-31T04:22:37;4.20;;;3.67;;
30515;SDS011;17297;54.022;10.760;2023-08-31T04:25:03;6.38;;;4.53;;
30515;SDS011;17297;54.022;10.760;2023-08-31T04:27:29;4.80;;;3.58;;
30515;SDS011;17297;54.022;10.760;2023-08-31T04:30:00;3.90;;;3.42;;
30515;SDS011;17297;54.022;10.760;2023-08-31T04:32:27;5.32;;;4.35;;
30515;SDS011;17297;54.022;10.760;2023-08-31T04:34:53;4.43;;;3.83;;
30515;SDS011;17297;54.022;10.760;2023-08-31T04:37:18;6.15;;;4.05;;
30515;SDS011;17297;54.022;10.760;2023-08-31T04:39:44;5.10;;;4.35;;
30515;SDS011;17297;54.022;10.760;2023-08-31T04:42:09;5.57;;;4.50;;
30515;SDS011;17297;54.022;10.760;2023-08-31T04:44:34;4.88;;;4.13;;
30515;SDS011;17297;54.022;10.760;2023-08-31T04:47:00;4.63;;;3.75;;
30515;SDS011;17297;54.022;10.760;2023-08-31T04:49:25;4.43;;;3.58;;
30515;SDS011;17297;54.022;10.760;2023-08-31T04:51:51;4.20;;;3.80;;
30515;SDS011;17297;54.022;10.760;2023-08-31T04:54:17;4.60;;;3.85;;
30515;SDS011;17297;54.022;10.760;2023-08-31T04:56:43;3.88;;;3.50;;
30515;SDS011;17297;54.022;10.760;2023-08-31T04:59:08;4.47;;;3.35;;
30515;SDS011;17297;54.022;10.760;2023-08-31T05:01:35;4.15;;;3.65;;
30515;SDS011;17297;54.022;10.760;2023-08-31T05:04:02;2.97;;;2.67;;
30515;SDS011;17297;54.022;10.760;2023-08-31T05:06:28;4.70;;;3.60;;
30515;SDS011;17297;54.022;10.760;2023-08-31T05:08:53;4.15;;;3.72;;
30515;SDS011;17297;54.022;10.760;2023-08-31T05:11:19;4.22;;;3.28;;
30515;SDS011;17297;54.022;10.760;2023-08-31T05:13:44;5.30;;;3.55;;
30515;SDS011;17297;54.022;10.760;2023-08-31T05:16:09;3.78;;;3.30;;
30515;SDS011;17297;54.022;10.760;2023-08-31T05:18:35;4.55;;;3.20;;
30515;SDS011;17297;54.022;10.760;2023-08-31T05:21:01;3.47;;;2.85;;
30515;SDS011;17297;54.022;10.760;2023-08-31T05:23:27;3.70;;;3.30;;
30515;SDS011;17297;54.022;10.760;2023-08-31T05:25:52;3.55;;;3.08;;
30515;SDS011;17297;54.022;10.760;2023-08-31T05:28:18;3.92;;;3.20;;
30515;SDS011;17297;54.022;10.760;2023-08-31T05:30:49;2.85;;;2.58;;
30515;SDS011;17297;54.022;10.760;2023-08-31T05:33:18;3.40;;;3.10;;
30515;SDS011;17297;54.022;10.760;2023-08-31T05:35:44;3.00;;;2.80;;
30515;SDS011;17297;54.022;10.760;2023-08-31T05:38:10;3.63;;;2.90;;
30515;SDS011;17297;54.022;10.760;2023-08-31T05:40:36;4.40;;;2.80;;
30515;SDS011;17297;54.022;10.760;2023-08-31T05:43:01;3.15;;;2.85;;
30515;SDS011;17297;54.022;10.760;2023-08-31T05:45:29;4.68;;;3.05;;
30515;SDS011;17297;54.022;10.760;2023-08-31T05:47:56;2.75;;;2.55;;
30515;SDS011;17297;54.022;10.760;2023-08-31T05:50:22;2.65;;;2.30;;
30515;SDS011;17297;54.022;10.760;2023-08-31T05:52:47;3.17;;;2.88;;
30515;SDS011;17297;54.022;10.760;2023-08-31T05:55:12;3.00;;;2.60;;
30515;SDS011;17297;54.022;10.760;2023-08-31T05:57:38;3.20;;;2.35;;
30515;SDS011;17297;54.022;10.760;2023-08-31T06:00:04;2.83;;;2.40;;
30515;SDS011;17297;54.022;10.760;2023-08-31T06:02:37;3.28;;;2.40;;
30515;SDS011;17297;54.022;10.760;2023-08-31T06:05:03;3.95;;;2.45;;
30515;SDS011;17297;54.022;10.760;2023-08-31T06:07:29;3.30;;;3.00;;
30515;SDS011;17297;54.022;10.760;2023-08-31T06:09:55;2.47;;;2.28;;
30515;SDS011;17297;54.022;10.760;2023-08-31T06:12:20;2.60;;;2.25;;
30515;SDS011;17297;54.022;10.760;2023-08-31T06:14:46;3.03;;;2.30;;
30515;SDS011;17297;54.022;10.760;2023-08-31T06:17:11;2.53;;;2.33;;
30515;SDS011;17297;54.022;10.760;2023-08-31T06:19:38;2.45;;;2.08;;
30515;SDS011;17297;54.022;10.760;2023-08-31T06:22:06;2.13;;;1.90;;
30515;SDS011;17297;54.022;10.760;2023-08-31T06:24:32;2.15;;;1.95;;
30515;SDS011;17297;54.022;10.760;2023-08-31T06:26:58;3.88;;;2.17;;
30515;SDS011;17297;54.022;10.760;2023-08-31T06:29:23;3.08;;;2.00;;
30515;SDS011;17297;54.022;10.760;2023-08-31T06:31:49;2.70;;;2.03;;
30515;SDS011;17297;54.022;10.760;2023-08-31T06:34:14;3.45;;;1.80;;
30515;SDS011;17297;54.022;10.760;2023-08-31T06:36:39;1.75;;;1.65;;
30515;SDS011;17297;54.022;10.760;2023-08-31T06:39:05;2.63;;;1.70;;
30515;SDS011;17297;54.022;10.760;2023-08-31T06:41:31;3.10;;;2.60;;
30515;SDS011;17297;54.022;10.760;2023-08-31T06:43:57;3.00;;;2.15;;
30515;SDS011;17297;54.022;10.760;2023-08-31T06:46:24;1.92;;;1.60;;
30515;SDS011;17297;54.022;10.760;2023-08-31T06:48:49;2.20;;;1.60;;
30515;SDS011;17297;54.022;10.760;2023-08-31T06:51:15;1.88;;;1.42;;
30515;SDS011;17297;54.022;10.760;2023-08-31T06:53:41;2.50;;;1.73;;
30515;SDS011;17297;54.022;10.760;2023-08-31T06:56:08;1.75;;;1.20;;
30515;SDS011;17297;54.022;10.760;2023-08-31T06:58:34;3.35;;;1.52;;
30515;SDS011;17297;54.022;10.760;2023-08-31T07:01:00;1.20;;;1.10;;
30515;SDS011;17297;54.022;10.760;2023-08-31T07:03:25;2.95;;;1.90;;
30515;SDS011;17297;54.022;10.760;2023-08-31T07:05:51;2.15;;;1.50;;
30515;SDS011;17297;54.022;10.760;2023-08-31T07:08:17;3.15;;;1.50;;
30515;SDS011;17297;54.022;10.760;2023-08-31T07:10:42;1.38;;;1.00;;
30515;SDS011;17297;54.022;10.760;2023-08-31T07:13:07;2.85;;;2.30;;
30515;SDS011;17297;54.022;10.760;2023-08-31T07:15:33;2.45;;;1.30;;
30515;SDS011;17297;54.022;10.760;2023-08-31T07:17:58;1.73;;;1.20;;
30515;SDS011;17297;54.022;10.760;2023-08-31T07:20:24;1.40;;;1.27;;
30515;SDS011;17297;54.022;10.760;2023-08-31T07:22:49;2.58;;;1.40;;
30515;SDS011;17297;54.022;10.760;2023-08-31T07:25:14;2.22;;;1.13;;
30515;SDS011;17297;54.022;10.760;2023-08-31T07:27:40;1.17;;;1.08;;
30515;SDS011;17297;54.022;10.760;2023-08-31T07:30:06;2.70;;;1.70;;
30515;SDS011;17297;54.022;10.760;2023-08-31T07:32:32;1.52;;;1.13;;
30515;SDS011;17297;54.022;10.760;2023-08-31T07:34:57;1.15;;;0.90;;
30515;SDS011;17297;54.022;10.760;2023-08-31T07:37:22;1.55;;;1.42;;
30515;SDS011;17297;54.022;10.760;2023-08-31T07:39:48;1.70;;;0.90;;
30515;SDS011;17297;54.022;10.760;2023-08-31T07:42:13;2.45;;;1.08;;
30515;SDS011;17297;54.022;10.760;2023-08-31T07:44:38;1.40;;;0.90;;
30515;SDS011;17297;54.022;10.760;2023-08-31T07:47:04;0.98;;;0.95;;
30515;SDS011;17297;54.022;10.760;2023-08-31T07:49:30;2.67;;;1.38;;
30515;SDS011;17297;54.022;10.760;2023-08-31T07:51:57;0.93;;;0.93;;
30515;SDS011;17297;54.022;10.760;2023-08-31T07:54:22;1.23;;;1.10;;
30515;SDS011;17297;54.022;10.760;2023-08-31T07:56:48;0.90;;;0.90;;
30515;SDS011;17297;54.022;10.760;2023-08-31T07:59:13;1.45;;;1.35;;
30515;SDS011;17297;54.022;10.760;2023-08-31T08:01:39;1.00;;;0.90;;
30515;SDS011;17297;54.022;10.760;2023-08-31T08:04:05;2.53;;;0.82;;
30515;SDS011;17297;54.022;10.760;2023-08-31T08:06:31;0.93;;;0.82;;
30515;SDS011;17297;54.022;10.760;2023-08-31T08:08:56;1.13;;;1.02;;
30515;SDS011;17297;54.022;10.760;2023-08-31T08:11:22;1.10;;;1.00;;
30515;SDS011;17297;54.022;10.760;2023-08-31T08:13:47;1.83;;;1.23;;
30515;SDS011;17297;54.022;10.760;2023-08-31T08:16:13;1.90;;;0.82;;
30515;SDS011;17297;54.022;10.760;2023-08-31T08:18:39;1.13;;;1.00;;
30515;SDS011;17297;54.022;10.760;2023-08-31T08:21:05;1.52;;;0.98;;
30515;SDS011;17297;54.022;10.760;2023-08-31T08:23:30;0.70;;;0.70;;
30515;SDS011;17297;54.022;10.760;2023-08-31T08:25:56;1.80;;;1.00;;
30515;SDS011;17297;54.022;10.760;2023-08-31T08:28:21;1.00;;;0.82;;
30515;SDS011;17297;54.022;10.760;2023-08-31T08:30:46;1.55;;;0.85;;
30515;SDS011;17297;54.022;10.760;2023-08-31T08:33:12;0.70;;;0.70;;
30515;SDS011;17297;54.022;10.760;2023-08-31T08:35:37;2.22;;;1.17;;
30515;SDS011;17297;54.022;10.760;2023-08-31T08:38:03;1.67;;;1.58;;
30515;SDS011;17297;54.022;10.760;2023-08-31T08:40:30;1.02;;;0.85;;
30515;SDS011;17297;54.022;10.760;2023-08-31T08:42:56;1.17;;;0.98;;
30515;SDS011;17297;54.022;10.760;2023-08-31T08:45:25;1.08;;;0.90;;
30515;SDS011;17297;54.022;10.760;2023-08-31T08:47:54;3.33;;;0.98;;
30515;SDS011;17297;54.022;10.760;2023-08-31T08:50:22;0.80;;;0.80;;
30515;SDS011;17297;54.022;10.760;2023-08-31T08:52:48;1.02;;;0.85;;
30515;SDS011;17297;54.022;10.760;2023-08-31T08:55:14;0.80;;;0.80;;
30515;SDS011;17297;54.022;10.760;2023-08-31T08:57:40;1.35;;;0.93;;
30515;SDS011;17297;54.022;10.760;2023-08-31T09:00:06;1.13;;;0.80;;
30515;SDS011;17297;54.022;10.760;2023-08-31T09:02:32;2.40;;;1.48;;
30515;SDS011;17297;54.022;10.760;2023-08-31T09:04:57;3.47;;;1.20;;
30515;SDS011;17297;54.022;10.760;2023-08-31T09:07:23;0.90;;;0.90;;
30515;SDS011;17297;54.022;10.760;2023-08-31T09:09:50;0.98;;;0.77;;
30515;SDS011;17297;54.022;10.760;2023-08-31T09:12:16;2.25;;;0.70;;
30515;SDS011;17297;54.022;10.760;2023-08-31T09:14:41;1.58;;;1.02;;
30515;SDS011;17297;54.022;10.760;2023-08-31T09:17:07;4.63;;;0.90;;
30515;SDS011;17297;54.022;10.760;2023-08-31T09:19:32;1.73;;;0.88;;
30515;SDS011;17297;54.022;10.760;2023-08-31T09:21:58;0.80;;;0.70;;
30515;SDS011;17297;54.022;10.760;2023-08-31T09:24:23;1.02;;;0.80;;
30515;SDS011;17297;54.022;10.760;2023-08-31T09:26:58;1.58;;;0.80;;
30515;SDS011;17297;54.022;10.760;2023-08-31T09:29:24;1.58;;;0.90;;
30515;SDS011;17297;54.022;10.760;2023-08-31T09:31:50;0.93;;;0.77;;
30515;SDS011;17297;54.022;10.760;2023-08-31T09:34:16;0.98;;;0.82;;
30515;SDS011;17297;54.022;10.760;2023-08-31T09:36:42;0.73;;;0.60;;
30515;SDS011;17297;54.022;10.760;2023-08-31T09:39:08;1.02;;;0.75;;
30515;SDS011;17297;54.022;10.760;2023-08-31T09:41:35;0.85;;;0.85;;
30515;SDS011;17297;54.022;10.760;2023-08-31T09:44:16;1.75;;;0.90;;
30515;SDS011;17297;54.022;10.760;2023-08-31T09:46:43;0.60;;;0.60;;
30515;SDS011;17297;54.022;10.760;2023-08-31T09:49:09;0.50;;;0.50;;
30515;SDS011;17297;54.022;10.760;2023-08-31T09:51:38;0.57;;;0.57;;
30515;SDS011;17297;54.022;10.760;2023-08-31T09:54:06;0.60;;;0.60;;
30515;SDS011;17297;54.022;10.760;2023-08-31T09:56:34;0.70;;;0.70;;
30515;SDS011;17297;54.022;10.760;2023-08-31T09:59:01;0.50;;;0.50;;
30515;SDS011;17297;54.022;10.760;2023-08-31T10:01:26;0.75;;;0.70;;
30515;SDS011;17297;54.022;10.760;2023-08-31T10:03:52;0.60;;;0.50;;
30515;SDS011;17297;54.022;10.760;2023-08-31T10:06:18;0.60;;;0.50;;
30515;SDS011;17297;54.022;10.760;2023-08-31T10:08:44;0.73;;;0.70;;
30515;SDS011;17297;54.022;10.760;2023-08-31T10:11:09;0.80;;;0.60;;
30515;SDS011;17297;54.022;10.760;2023-08-31T10:13:38;0.63;;;0.60;;
30515;SDS011;17297;54.022;10.760;2023-08-31T10:16:06;1.10;;;0.70;;
30515;SDS011;17297;54.022;10.760;2023-08-31T10:18:33;1.40;;;0.77;;
30515;SDS011;17297;54.022;10.760;2023-08-31T10:21:00;0.98;;;0.70;;
30515;SDS011;17297;54.022;10.760;2023-08-31T10:23:27;0.93;;;0.60;;
30515;SDS011;17297;54.022;10.760;2023-08-31T10:28:19;0.88;;;0.55;;
30515;SDS011;17297;54.022;10.760;2023-08-31T10:33:39;0.65;;;0.65;;
30515;SDS011;17297;54.022;10.760;2023-08-31T10:36:11;1.10;;;0.93;;
30515;SDS011;17297;54.022;10.760;2023-08-31T10:38:41;0.93;;;0.60;;
30515;SDS011;17297;54.022;10.760;2023-08-31T10:41:32;1.00;;;0.90;;
30515;SDS011;17297;54.022;10.760;2023-08-31T10:43:58;1.10;;;0.65;;
30515;SDS011;17297;54.022;10.760;2023-08-31T10:46:36;0.70;;;0.70;;
30515;SDS011;17297;54.022;10.760;2023-08-31T10:51:37;0.63;;;0.63;;
30515;SDS011;17297;54.022;10.760;2023-08-31T10:54:04;0.63;;;0.60;;
30515;SDS011;17297;54.022;10.760;2023-08-31T10:56:31;0.75;;;0.60;;
30515;SDS011;17297;54.022;10.760;2023-08-31T10:58:57;0.65;;;0.50;;
30515;SDS011;17297;54.022;10.760;2023-08-31T11:04:27;1.20;;;0.85;;
30515;SDS011;17297;54.022;10.760;2023-08-31T11:07:12;0.68;;;0.65;;
30515;SDS011;17297;54.022;10.760;2023-08-31T11:09:41;0.68;;;0.68;;
30515;SDS011;17297;54.022;10.760;2023-08-31T11:12:08;0.85;;;0.70;;
30515;SDS011;17297;54.022;10.760;2023-08-31T11:14:34;1.88;;;0.68;;
30515;SDS011;17297;54.022;10.760;2023-08-31T11:16:59;0.57;;;0.57;;
30515;SDS011;17297;54.022;10.760;2023-08-31T11:19:26;1.23;;;0.60;;
30515;SDS011;17297;54.022;10.760;2023-08-31T11:21:52;0.68;;;0.68;;
30515;SDS011;17297;54.022;10.760;2023-08-31T11:24:19;1.05;;;0.80;;
30515;SDS011;17297;54.022;10.760;2023-08-31T11:26:47;1.25;;;0.90;;
30515;SDS011;17297;54.022;10.760;2023-08-31T11:29:14;0.75;;;0.60;;
30515;SDS011;17297;54.022;10.760;2023-08-31T11:31:40;2.03;;;0.60;;
30515;SDS011;17297;54.022;10.760;2023-08-31T11:34:05;1.23;;;0.70;;
30515;SDS011;17297;54.022;10.760;2023-08-31T11:36:32;0.85;;;0.70;;
30515;SDS011;17297;54.022;10.760;2023-08-31T11:38:57;1.88;;;0.93;;
30515;SDS011;17297;54.022;10.760;2023-08-31T11:41:23;1.75;;;0.80;;
30515;SDS011;17297;54.022;10.760;2023-08-31T11:43:48;0.63;;;0.57;;
30515;SDS011;17297;54.022;10.760;2023-08-31T11:46:15;1.10;;;1.00;;
30515;SDS011;17297;54.022;10.760;2023-08-31T11:48:42;2.72;;;0.80;;
30515;SDS011;17297;54.022;10.760;2023-08-31T11:51:09;1.48;;;0.70;;
30515;SDS011;17297;54.022;10.760;2023-08-31T11:53:35;0.63;;;0.63;;
30515;SDS011;17297;54.022;10.760;2023-08-31T11:56:02;0.60;;;0.60;;
30515;SDS011;17297;54.022;10.760;2023-08-31T11:58:27;0.75;;;0.68;;
30515;SDS011;17297;54.022;10.760;2023-08-31T12:00:59;0.70;;;0.70;;
30515;SDS011;17297;54.022;10.760;2023-08-31T12:03:25;0.60;;;0.60;;
30515;SDS011;17297;54.022;10.760;2023-08-31T12:05:52;1.33;;;0.75;;
30515;SDS011;17297;54.022;10.760;2023-08-31T12:08:25;0.60;;;0.60;;
30515;SDS011;17297;54.022;10.760;2023-08-31T12:10:51;0.68;;;0.60;;
30515;SDS011;17297;54.022;10.760;2023-08-31T12:13:16;1.30;;;0.90;;
30515;SDS011;17297;54.022;10.760;2023-08-31T12:15:42;0.65;;;0.50;;
30515;SDS011;17297;54.022;10.760;2023-08-31T12:18:08;0.90;;;0.85;;
30515;SDS011;17297;54.022;10.760;2023-08-31T12:20:34;1.98;;;0.70;;
30515;SDS011;17297;54.022;10.760;2023-08-31T12:23:06;1.25;;;0.63;;
30515;SDS011;17297;54.022;10.760;2023-08-31T12:25:32;1.08;;;0.60;;
30515;SDS011;17297;54.022;10.760;2023-08-31T12:27:57;0.88;;;0.88;;
30515;SDS011;17297;54.022;10.760;2023-08-31T12:30:23;0.80;;;0.80;;
30515;SDS011;17297;54.022;10.760;2023-08-31T12:32:48;1.27;;;0.70;;
30515;SDS011;17297;54.022;10.760;2023-08-31T12:35:13;1.50;;;0.82;;
30515;SDS011;17297;54.022;10.760;2023-08-31T12:37:39;2.78;;;1.40;;
30515;SDS011;17297;54.022;10.760;2023-08-31T12:40:04;0.50;;;0.50;;
30515;SDS011;17297;54.022;10.760;2023-08-31T12:42:32;0.63;;;0.63;;
30515;SDS011;17297;54.022;10.760;2023-08-31T12:44:57;1.00;;;0.88;;
30515;SDS011;17297;54.022;10.760;2023-08-31T12:47:23;0.70;;;0.70;;
30515;SDS011;17297;54.022;10.760;2023-08-31T12:49:49;1.05;;;0.70;;
30515;SDS011;17297;54.022;10.760;2023-08-31T12:52:15;0.60;;;0.60;;
30515;SDS011;17297;54.022;10.760;2023-08-31T12:54:40;1.13;;;0.73;;
30515;SDS011;17297;54.022;10.760;2023-08-31T12:57:05;1.27;;;1.08;;
30515;SDS011;17297;54.022;10.760;2023-08-31T12:59:31;0.93;;;0.77;;
30515;SDS011;17297;54.022;10.760;2023-08-31T13:01:56;1.00;;;0.63;;
30515;SDS011;17297;54.022;10.760;2023-08-31T13:04:22;1.27;;;0.70;;
30515;SDS011;17297;54.022;10.760;2023-08-31T13:06:47;1.13;;;0.70;;
30515;SDS011;17297;54.022;10.760;2023-08-31T13:09:13;1.75;;;0.70;;
30515;SDS011;17297;54.022;10.760;2023-08-31T13:11:38;1.88;;;0.75;;
30515;SDS011;17297;54.022;10.760;2023-08-31T13:14:04;0.50;;;0.50;;
30515;SDS011;17297;54.022;10.760;2023-08-31T13:16:30;0.60;;;0.50;;
30515;SDS011;17297;54.022;10.760;2023-08-31T13:18:55;0.65;;;0.60;;
30515;SDS011;17297;54.022;10.760;2023-08-31T13:21:20;0.65;;;0.60;;
30515;SDS011;17297;54.022;10.760;2023-08-31T13:23:46;0.70;;;0.70;;
30515;SDS011;17297;54.022;10.760;2023-08-31T13:26:11;0.70;;;0.70;;
30515;SDS011;17297;54.022;10.760;2023-08-31T13:28:37;0.57;;;0.55;;
30515;SDS011;17297;54.022;10.760;2023-08-31T13:31:02;1.27;;;0.70;;
30515;SDS011;17297;54.022;10.760;2023-08-31T13:33:28;1.77;;;1.20;;
30515;SDS011;17297;54.022;10.760;2023-08-31T13:35:56;1.27;;;0.90;;
30515;SDS011;17297;54.022;10.760;2023-08-31T13:38:23;1.40;;;0.63;;
30515;SDS011;17297;54.022;10.760;2023-08-31T13:40:53;1.52;;;0.90;;
30515;SDS011;17297;54.022;10.760;2023-08-31T13:43:19;1.42;;;0.70;;
30515;SDS011;17297;54.022;10.760;2023-08-31T13:45:45;0.50;;;0.50;;
30515;SDS011;17297;54.022;10.760;2023-08-31T13:48:10;0.47;;;0.47;;
30515;SDS011;17297;54.022;10.760;2023-08-31T13:50:36;0.73;;;0.65;;
30515;SDS011;17297;54.022;10.760;2023-08-31T13:53:02;0.63;;;0.60;;
30515;SDS011;17297;54.022;10.760;2023-08-31T13:55:28;0.82;;;0.50;;
30515;SDS011;17297;54.022;10.760;2023-08-31T13:57:54;0.60;;;0.60;;
30515;SDS011;17297;54.022;10.760;2023-08-31T14:00:19;0.95;;;0.60;;
30515;SDS011;17297;54.022;10.760;2023-08-31T14:02:44;0.65;;;0.60;;
30515;SDS011;17297;54.022;10.760;2023-08-31T14:05:10;0.50;;;0.50;;
30515;SDS011;17297;54.022;10.760;2023-08-31T14:07:36;1.13;;;0.75;;
30515;SDS011;17297;54.022;10.760;2023-08-31T14:10:02;1.02;;;0.70;;
30515;SDS011;17297;54.022;10.760;2023-08-31T14:12:31;0.50;;;0.50;;
30515;SDS011;17297;54.022;10.760;2023-08-31T14:14:57;0.50;;;0.50;;
30515;SDS011;17297;54.022;10.760;2023-08-31T14:17:23;0.88;;;0.60;;
30515;SDS011;17297;54.022;10.760;2023-08-31T14:19:48;1.25;;;0.47;;
30515;SDS011;17297;54.022;10.760;2023-08-31T14:22:14;0.60;;;0.60;;
30515;SDS011;17297;54.022;10.760;2023-08-31T14:24:40;0.63;;;0.50;;
30515;SDS011;17297;54.022;10.760;2023-08-31T14:27:06;0.90;;;0.60;;
30515;SDS011;17297;54.022;10.760;2023-08-31T14:29:31;0.60;;;0.50;;
30515;SDS011;17297;54.022;10.760;2023-08-31T14:31:57;0.50;;;0.50;;
30515;SDS011;17297;54.022;10.760;2023-08-31T14:34:22;0.52;;;0.50;;
30515;SDS011;17297;54.022;10.760;2023-08-31T14:36:50;0.40;;;0.40;;
30515;SDS011;17297;54.022;10.760;2023-08-31T14:39:15;0.43;;;0.43;;
30515;SDS011;17297;54.022;10.760;2023-08-31T14:41:41;0.65;;;0.45;;
30515;SDS011;17297;54.022;10.760;2023-08-31T14:44:06;0.32;;;0.32;;